createdAt,value
2022-11-16T00:00:10.496Z,99968.25
2022-11-16T00:02:38.817Z,99958.50
2022-11-16T00:05:08.237Z,99954.28
2022-11-16T00:07:36.618Z,99947.28
2022-11-16T00:10:11.268Z,99935.72
2022-11-16T00:12:40.458Z,99940.13
2022-11-16T00:15:09.963Z,99952.28
2022-11-16T00:17:38.180Z,99947.09
2022-11-16T00:20:08.175Z,99957.59
2022-11-16T00:22:36.364Z,99959.47
2022-11-16T00:25:07.303Z,99957.78
2022-11-16T00:27:35.713Z,99956.00
2022-11-16T00:30:05.446Z,99941.91
2022-11-16T00:32:33.893Z,99938.31
2022-11-16T00:35:02.187Z,99940.84
2022-11-16T00:37:30.485Z,99949.59
2022-11-16T00:39:58.744Z,99946.09
2022-11-16T00:42:28.321Z,99917.50
2022-11-16T00:44:56.762Z,99937.47
2022-11-16T00:47:25.016Z,99945.31
2022-11-16T00:49:53.366Z,99942.59
2022-11-16T00:52:22.302Z,99944.25
2022-11-16T00:54:50.725Z,99943.31
2022-11-16T00:57:19.231Z,99932.03
2022-11-16T00:59:49.015Z,99932.13
2022-11-16T01:02:17.960Z,99938.00
2022-11-16T01:04:46.207Z,99927.78
2022-11-16T01:07:14.784Z,99939.13
2022-11-16T01:09:43.305Z,99940.81
2022-11-16T01:12:10.619Z,99935.69
2022-11-16T01:14:40.587Z,99947.03
2022-11-16T01:17:10.455Z,99935.66
2022-11-16T01:19:39.977Z,99930.25
2022-11-16T01:22:09.146Z,99915.44
2022-11-16T01:24:37.445Z,99930.97
2022-11-16T01:27:06.028Z,99921.28
2022-11-16T01:29:37.204Z,99923.03
2022-11-16T01:32:06.312Z,99917.91
2022-11-16T01:34:36.861Z,99917.91
2022-11-16T01:37:12.062Z,99928.22
2022-11-16T01:39:43.199Z,99925.59
2022-11-16T01:42:19.628Z,99924.78
2022-11-16T01:45:09.571Z,99899.75
2022-11-16T01:47:38.341Z,99914.41
2022-11-16T01:50:14.813Z,99906.53
2022-11-16T01:52:52.935Z,99933.44
2022-11-16T01:55:23.697Z,99927.44
2022-11-16T01:58:07.238Z,99933.97
2022-11-16T02:00:37.675Z,99926.81
2022-11-16T02:03:24.414Z,99931.03
2022-11-16T02:06:39.832Z,99932.66
2022-11-16T02:09:57.273Z,99934.41
2022-11-16T02:13:02.629Z,99931.81
2022-11-16T02:15:44.958Z,99910.31
2022-11-16T02:18:31.819Z,99933.03
2022-11-16T02:21:23.610Z,99929.63
2022-11-16T02:24:37.164Z,99940.19
2022-11-16T02:27:57.392Z,99938.44
2022-11-16T02:30:27.157Z,99936.63
2022-11-16T02:33:03.794Z,99914.09
2022-11-16T02:35:38.062Z,99929.75
2022-11-16T02:38:13.307Z,99901.78
2022-11-16T02:40:47.417Z,99912.41
2022-11-16T02:43:26.741Z,99901.06
2022-11-16T02:46:01.330Z,99898.31
2022-11-16T02:48:36.680Z,99919.38
2022-11-16T02:51:07.214Z,99924.56
2022-11-16T02:53:43.208Z,99895.03
2022-11-16T02:56:14.857Z,99898.50
2022-11-16T02:58:43.557Z,99907.16
2022-11-16T03:01:18.542Z,99918.47
2022-11-16T03:03:53.867Z,99910.63
2022-11-16T03:06:27.513Z,99923.66
2022-11-16T03:09:03.359Z,99909.75
2022-11-16T03:12:01.692Z,99906.22
2022-11-16T03:14:40.907Z,99926.25
2022-11-16T03:17:16.930Z,99927.19
2022-11-16T03:19:56.095Z,99929.00
2022-11-16T03:22:34.483Z,99912.47
2022-11-16T03:25:04.731Z,99924.72
2022-11-16T03:27:41.588Z,99928.22
2022-11-16T03:30:13.923Z,99936.22
2022-11-16T03:32:54.487Z,99936.25
2022-11-16T03:35:30.188Z,99917.94
2022-11-16T03:38:01.037Z,99897.13
2022-11-16T03:40:34.820Z,99942.44
2022-11-16T03:43:07.838Z,99945.94
2022-11-16T03:45:38.092Z,99941.59
2022-11-16T03:48:09.217Z,99939.00
2022-11-16T03:50:37.786Z,99938.94
2022-11-16T03:53:06.058Z,99951.13
2022-11-16T03:55:35.198Z,99957.38
2022-11-16T03:58:03.744Z,99965.28
2022-11-16T04:00:32.365Z,99961.00
2022-11-16T04:03:08.325Z,99965.41
2022-11-16T04:05:54.180Z,99974.13
2022-11-16T04:08:45.512Z,99975.03
2022-11-16T04:11:33.431Z,99967.22
2022-11-16T04:14:19.766Z,99975.94
2022-11-16T04:17:13.939Z,99971.59
2022-11-16T04:20:01.147Z,99979.59
2022-11-16T04:22:52.975Z,99972.59
2022-11-16T04:25:26.740Z,99980.44
2022-11-16T04:28:13.556Z,99972.56
2022-11-16T04:31:08.257Z,99960.44
2022-11-16T04:33:57.159Z,99983.25
2022-11-16T04:36:52.685Z,99982.38
2022-11-16T04:39:21.005Z,99956.28
2022-11-16T04:42:06.974Z,99957.94
2022-11-16T04:44:54.290Z,99978.00
2022-11-16T04:47:25.274Z,99981.53
2022-11-16T04:49:53.493Z,99981.56
2022-11-16T04:52:24.161Z,99991.22
2022-11-16T04:54:54.871Z,99992.13
2022-11-16T04:57:24.158Z,99996.53
2022-11-16T04:59:52.831Z,100000.09
2022-11-16T05:02:21.167Z,99965.19
2022-11-16T05:04:56.020Z,100001.75
2022-11-16T05:07:26.855Z,100006.09
2022-11-16T05:10:03.647Z,100005.25
2022-11-16T05:12:32.591Z,100000.13
2022-11-16T05:15:03.436Z,100010.56
2022-11-16T05:17:34.303Z,100001.91
2022-11-16T05:20:20.870Z,100009.75
2022-11-16T05:22:58.718Z,99963.53
2022-11-16T05:25:36.806Z,99993.19
2022-11-16T05:28:08.137Z,99987.13
2022-11-16T05:30:40.795Z,99987.13
2022-11-16T05:33:09.386Z,99979.25
2022-11-16T05:35:41.389Z,99992.34
2022-11-16T05:38:11.272Z,99963.59
2022-11-16T05:40:44.563Z,99988.91
2022-11-16T05:43:12.940Z,99982.78
2022-11-16T05:45:49.704Z,99981.91
2022-11-16T05:48:18.045Z,99991.53
2022-11-16T05:50:46.215Z,99995.03
2022-11-16T05:53:25.450Z,99977.53
2022-11-16T05:55:53.953Z,99983.63
2022-11-16T05:58:22.774Z,99997.59
2022-11-16T06:00:54.403Z,99994.09
2022-11-16T06:03:23.586Z,99994.09
2022-11-16T06:05:53.249Z,100003.66
2022-11-16T06:08:21.675Z,100001.88
2022-11-16T06:10:54.865Z,100001.00
2022-11-16T06:13:23.780Z,100003.66
2022-11-16T06:15:56.450Z,99998.41
2022-11-16T06:18:25.298Z,100015.81
2022-11-16T06:20:53.540Z,100021.00
2022-11-16T06:23:23.059Z,100025.38
2022-11-16T06:25:56.442Z,100029.66
2022-11-16T06:28:28.220Z,100025.28
2022-11-16T06:30:57.294Z,100028.78
2022-11-16T06:33:32.220Z,100042.69
2022-11-16T06:36:02.504Z,100045.25
2022-11-16T06:38:32.229Z,100039.19
2022-11-16T06:41:02.902Z,100040.88
2022-11-16T06:43:35.444Z,100041.66
2022-11-16T06:46:05.440Z,100038.22
2022-11-16T06:48:34.766Z,100042.50
2022-11-16T06:51:06.634Z,100051.28
2022-11-16T06:53:36.067Z,100054.69
2022-11-16T06:56:07.881Z,100054.69
2022-11-16T06:58:43.831Z,100050.34
2022-11-16T07:01:14.322Z,100056.44
2022-11-16T07:03:44.474Z,100061.69
2022-11-16T07:06:14.900Z,100043.28
2022-11-16T07:08:46.035Z,100029.22
2022-11-16T07:11:20.194Z,100068.56
2022-11-16T07:13:49.467Z,100061.59
2022-11-16T07:16:18.074Z,100070.41
2022-11-16T07:18:53.586Z,100071.28
2022-11-16T07:21:22.121Z,100071.25
2022-11-16T07:23:50.393Z,100073.06
2022-11-16T07:26:22.483Z,100075.66
2022-11-16T07:29:13.842Z,100079.13
2022-11-16T07:31:46.799Z,100085.31
2022-11-16T07:34:34.160Z,100079.16
2022-11-16T07:37:12.734Z,100079.13
2022-11-16T07:39:41.797Z,100094.00
2022-11-16T07:42:12.508Z,100061.72
2022-11-16T07:44:58.083Z,100093.16
2022-11-16T07:47:26.758Z,100080.06
2022-11-16T07:49:55.093Z,100096.63
2022-11-16T07:52:26.530Z,100100.16
2022-11-16T07:54:59.003Z,100102.78
2022-11-16T07:57:30.450Z,100105.38
2022-11-16T08:00:02.319Z,100107.97
2022-11-16T08:02:41.693Z,100108.88
2022-11-16T08:05:16.022Z,100106.31
2022-11-16T08:07:44.418Z,100101.06
2022-11-16T08:10:13.177Z,100105.44
2022-11-16T08:12:43.480Z,100099.31
2022-11-16T08:15:14.312Z,100101.13
2022-11-16T08:17:42.934Z,100074.88
2022-11-16T08:20:13.835Z,100109.00
2022-11-16T08:22:43.139Z,100102.00
2022-11-16T08:25:13.564Z,100115.09
2022-11-16T08:27:45.945Z,100111.59
2022-11-16T08:30:15.513Z,100108.19
2022-11-16T08:32:45.695Z,100106.47
2022-11-16T08:35:15.557Z,100092.47
2022-11-16T08:37:45.062Z,100100.31
2022-11-16T08:40:14.589Z,100103.84
2022-11-16T08:42:45.342Z,100107.38
2022-11-16T08:45:14.551Z,100112.66
2022-11-16T08:47:43.562Z,100113.50
2022-11-16T08:50:11.871Z,100120.53
2022-11-16T08:52:40.140Z,100117.91
2022-11-16T08:55:10.309Z,100121.38
2022-11-16T08:57:39.861Z,100088.97
2022-11-16T09:00:15.144Z,100125.72
2022-11-16T09:02:43.535Z,100123.13
2022-11-16T09:05:12.468Z,100087.31
2022-11-16T09:07:41.994Z,100134.53
2022-11-16T09:10:11.932Z,100127.53
2022-11-16T09:12:40.790Z,100110.97
2022-11-16T09:15:10.738Z,100110.97
2022-11-16T09:17:40.331Z,100111.84
2022-11-16T09:20:10.160Z,100110.13
2022-11-16T09:22:38.600Z,100122.28
2022-11-16T09:25:09.403Z,100117.91
2022-11-16T09:27:38.261Z,100110.94
2022-11-16T09:30:09.385Z,100067.28
2022-11-16T09:32:39.091Z,100111.88
2022-11-16T09:35:08.619Z,100104.06
2022-11-16T09:37:36.871Z,100106.69
2022-11-16T09:40:06.139Z,100110.19
2022-11-16T09:42:49.669Z,100097.09
2022-11-16T09:45:25.903Z,100112.81
2022-11-16T09:48:01.499Z,100094.44
2022-11-16T09:50:43.042Z,100127.66
2022-11-16T09:53:33.008Z,100118.94
2022-11-16T09:56:05.607Z,100123.31
2022-11-16T09:58:42.413Z,100126.78
2022-11-16T10:01:24.547Z,100118.94
2022-11-16T10:04:02.717Z,100122.44
2022-11-16T10:06:46.921Z,100095.41
2022-11-16T10:09:15.616Z,100115.41
2022-11-16T10:12:03.038Z,100090.09
2022-11-16T10:15:25.303Z,100118.03
2022-11-16T10:18:12.252Z,100115.41
2022-11-16T10:21:03.669Z,100117.97
2022-11-16T10:23:45.624Z,100120.53
2022-11-16T10:26:27.692Z,100124.91
2022-11-16T10:29:15.594Z,100087.31
2022-11-16T10:32:02.525Z,100120.47
2022-11-16T10:34:41.200Z,100118.66
2022-11-16T10:37:13.989Z,100110.63
2022-11-16T10:39:42.538Z,100104.56
2022-11-16T10:42:16.644Z,100105.44
2022-11-16T10:44:47.679Z,100098.41
2022-11-16T10:47:23.042Z,100095.75
2022-11-16T10:49:59.119Z,100101.72
2022-11-16T10:52:29.643Z,100100.91
2022-11-16T10:54:57.961Z,100099.03
2022-11-16T10:57:26.596Z,100098.84
2022-11-16T10:59:56.415Z,100099.72
2022-11-16T11:02:39.259Z,100092.78
2022-11-16T11:05:20.210Z,100062.09
2022-11-16T11:07:58.373Z,100070.00
2022-11-16T11:10:34.226Z,100078.63
2022-11-16T11:13:18.980Z,100076.97
2022-11-16T11:15:48.047Z,100062.03
2022-11-16T11:18:27.709Z,100069.09
2022-11-16T11:21:10.166Z,100074.41
2022-11-16T11:23:49.036Z,100077.69
2022-11-16T11:26:36.555Z,100065.50
2022-11-16T11:29:21.514Z,100077.69
2022-11-16T11:31:53.527Z,100071.41
2022-11-16T11:34:25.390Z,100049.66
2022-11-16T11:36:57.663Z,100059.38
2022-11-16T11:39:36.454Z,100060.25
2022-11-16T11:42:23.245Z,100033.38
2022-11-16T11:44:59.693Z,100047.91
2022-11-16T11:50:44.207Z,100004.28
2022-11-16T11:53:36.026Z,100011.88
2022-11-16T11:56:06.687Z,100031.75
2022-11-16T11:58:39.768Z,100031.78
2022-11-16T12:01:37.813Z,100033.38
2022-11-16T12:04:45.868Z,100043.53
2022-11-16T12:07:29.778Z,100030.72
2022-11-16T12:10:06.128Z,100013.22
2022-11-16T12:12:50.588Z,100019.25
2022-11-16T12:15:56.426Z,100022.50
2022-11-16T12:18:42.746Z,99985.41
2022-11-16T12:21:14.492Z,100011.66
2022-11-16T12:24:04.394Z,100005.84
2022-11-16T12:26:46.131Z,100001.53
2022-11-16T12:29:33.109Z,100004.81
2022-11-16T12:32:29.939Z,100001.34
2022-11-16T12:35:17.899Z,100003.88
2022-11-16T12:37:53.683Z,100004.34
2022-11-16T12:40:39.379Z,99996.38
2022-11-16T12:43:21.344Z,99999.44
2022-11-16T12:46:07.623Z,99988.16
2022-11-16T12:49:17.992Z,99982.69
2022-11-16T12:52:03.196Z,99969.53
2022-11-16T12:55:28.126Z,99981.56
2022-11-16T12:58:15.581Z,99976.94
2022-11-16T13:01:03.754Z,99978.53
2022-11-16T13:03:40.125Z,99967.63
2022-11-16T13:06:14.421Z,99958.72
2022-11-16T13:08:54.896Z,99961.59
2022-11-16T13:11:28.412Z,99958.91
2022-11-16T13:14:01.297Z,99961.41
2022-11-16T13:16:31.706Z,99962.38
2022-11-16T13:19:01.801Z,99957.97
2022-11-16T13:21:50.646Z,99966.47
2022-11-16T13:24:46.176Z,99956.50
2022-11-16T13:27:26.569Z,99945.88
2022-11-16T13:30:00.493Z,99952.75
2022-11-16T13:32:48.404Z,99959.00
2022-11-16T13:35:19.060Z,99952.75
2022-11-16T13:37:49.471Z,99947.50
2022-11-16T13:40:30.564Z,99945.22
2022-11-16T13:43:19.759Z,99940.94
2022-11-16T13:46:02.174Z,99942.16
2022-11-16T13:48:36.148Z,99946.47
2022-11-16T13:51:07.825Z,99941.44
2022-11-16T13:56:29.506Z,99935.34
2022-11-16T13:58:59.589Z,99950.00
2022-11-16T14:01:58.984Z,99932.16
2022-11-16T14:04:54.848Z,99919.72
2022-11-16T14:07:43.136Z,99918.06
2022-11-16T14:10:13.310Z,99927.41
2022-11-16T14:12:53.145Z,99928.16
2022-11-16T14:15:23.864Z,99912.34
2022-11-16T14:17:59.286Z,99913.94
2022-11-16T14:21:00.263Z,99928.91
2022-11-16T14:23:56.520Z,99918.22
2022-11-16T14:26:38.550Z,99911.16
2022-11-16T14:29:46.294Z,99908.94
2022-11-16T14:32:24.660Z,99886.88
2022-11-16T14:34:56.986Z,99904.31
2022-11-16T14:37:39.323Z,99901.78
2022-11-16T14:40:16.257Z,99897.72
2022-11-16T14:43:15.249Z,99898.69
2022-11-16T14:45:40.225Z,99876.19
2022-11-16T14:48:17.409Z,99878.09
2022-11-16T14:51:00.032Z,99867.91
2022-11-16T14:53:30.651Z,99859.03
2022-11-16T14:56:10.599Z,99869.81
2022-11-16T14:58:39.790Z,99849.13
2022-11-16T15:01:15.725Z,99862.31
2022-11-16T15:03:53.016Z,99868.56
2022-11-16T15:06:22.385Z,99857.38
2022-11-16T15:08:58.563Z,99855.78
2022-11-16T15:11:44.946Z,99858.44
2022-11-16T15:14:21.086Z,99858.59
2022-11-16T15:16:54.792Z,99830.69
2022-11-16T15:19:24.162Z,99843.09
2022-11-16T15:21:54.782Z,99864.25
2022-11-16T15:24:32.039Z,99860.03
2022-11-16T15:27:12.097Z,99843.56
2022-11-16T15:29:40.652Z,99858.38
2022-11-16T15:32:16.686Z,99863.69
2022-11-16T15:34:48.852Z,99835.81
2022-11-16T15:37:28.779Z,99828.03
2022-11-16T15:40:00.001Z,99853.25
2022-11-16T15:42:30.106Z,99828.88
2022-11-16T15:45:15.543Z,99849.00
2022-11-16T15:47:46.503Z,99836.81
2022-11-16T15:50:19.422Z,99830.75
2022-11-16T15:52:50.992Z,99831.69
2022-11-16T15:55:41.380Z,99809.03
2022-11-16T15:58:22.339Z,99809.88
2022-11-16T16:00:50.718Z,99801.19
2022-11-16T16:03:24.088Z,99792.50
2022-11-16T16:05:54.351Z,99797.72
2022-11-16T16:08:33.139Z,99789.91
2022-11-16T16:11:10.855Z,99770.75
2022-11-16T16:13:41.807Z,99786.44
2022-11-16T16:16:29.990Z,99786.50
2022-11-16T16:19:05.151Z,99795.25
2022-11-16T16:21:45.197Z,99790.00
2022-11-16T16:24:42.713Z,99783.91
2022-11-16T16:27:18.877Z,99787.41
2022-11-16T16:29:48.312Z,99801.38
2022-11-16T16:32:27.152Z,99787.44
2022-11-16T16:34:57.548Z,99770.88
2022-11-16T16:37:28.609Z,99755.25
2022-11-16T16:39:57.467Z,99790.06
2022-11-16T16:42:27.316Z,99784.81
2022-11-16T16:44:55.755Z,99780.44
2022-11-16T16:47:24.160Z,99779.56
2022-11-16T16:49:52.513Z,99778.69
2022-11-16T16:52:21.231Z,99757.81
2022-11-16T16:54:49.464Z,99781.34
2022-11-16T16:57:19.060Z,99758.72
2022-11-16T16:59:49.247Z,99770.91
2022-11-16T17:02:18.160Z,99763.91
2022-11-16T17:04:48.414Z,99756.09
2022-11-16T17:07:17.353Z,99756.13
2022-11-16T17:09:45.955Z,99749.16
2022-11-16T17:12:14.388Z,99751.75
2022-11-16T17:14:42.745Z,99743.03
2022-11-16T17:17:12.377Z,99757.00
2022-11-16T17:19:40.833Z,99760.47
2022-11-16T17:22:09.335Z,99752.63
2022-11-16T17:24:37.625Z,99745.63
2022-11-16T17:27:06.518Z,99734.34
2022-11-16T17:29:34.820Z,99741.25
2022-11-16T17:32:03.422Z,99737.75
2022-11-16T17:34:33.711Z,99738.63
2022-11-16T17:37:02.033Z,99729.94
2022-11-16T17:39:30.362Z,99733.41
2022-11-16T17:41:58.966Z,99737.78
2022-11-16T17:44:27.239Z,99746.50
2022-11-16T17:46:55.699Z,99743.91
2022-11-16T17:49:24.114Z,99743.03
2022-11-16T17:51:53.786Z,99744.78
2022-11-16T17:54:22.080Z,99745.66
2022-11-16T17:56:50.322Z,99743.03
2022-11-16T17:59:18.902Z,99749.97
2022-11-16T18:01:48.546Z,99751.72
2022-11-16T18:04:16.802Z,99707.31
2022-11-16T18:06:45.054Z,99749.06
2022-11-16T18:09:14.667Z,99722.06
2022-11-16T18:11:42.953Z,99737.69
2022-11-16T18:14:11.407Z,99739.41
2022-11-16T18:16:41.110Z,99729.81
2022-11-16T18:19:09.954Z,99747.22
2022-11-16T18:21:40.804Z,99720.22
2022-11-16T18:24:10.392Z,99731.50
2022-11-16T18:26:41.507Z,99731.47
2022-11-16T18:29:12.686Z,99746.22
2022-11-16T18:31:41.406Z,99731.38
2022-11-16T18:34:10.169Z,99717.41
2022-11-16T18:36:38.452Z,99738.31
2022-11-16T18:39:08.242Z,99728.69
2022-11-16T18:41:36.704Z,99724.28
2022-11-16T18:44:06.474Z,99720.81
2022-11-16T18:46:34.920Z,99693.81
2022-11-16T18:49:03.197Z,99700.78
2022-11-16T18:51:31.868Z,99694.59
2022-11-16T18:54:00.094Z,99681.53
2022-11-16T18:56:28.578Z,99682.28
2022-11-16T18:58:57.563Z,99681.50
2022-11-16T19:01:28.482Z,99652.66
2022-11-16T19:03:57.676Z,99652.53
2022-11-16T19:06:26.582Z,99662.00
2022-11-16T19:08:59.531Z,99655.84
2022-11-16T19:11:29.278Z,99647.16
2022-11-16T19:14:00.697Z,99635.00
2022-11-16T19:16:30.963Z,99626.31
2022-11-16T19:18:59.373Z,99621.94
2022-11-16T19:21:27.850Z,99614.00
2022-11-16T19:23:57.575Z,99612.34
2022-11-16T19:26:28.006Z,99587.94
2022-11-16T19:28:57.060Z,99596.59
2022-11-16T19:31:28.630Z,99582.75
2022-11-16T19:34:00.290Z,99560.19
2022-11-16T19:36:30.452Z,99548.81
2022-11-16T19:38:59.427Z,99567.88
2022-11-16T19:41:28.832Z,99536.59
2022-11-16T19:44:00.171Z,99538.31
2022-11-16T19:46:30.548Z,99535.56
2022-11-16T19:49:01.127Z,99536.47
2022-11-16T19:51:31.534Z,99524.22
2022-11-16T19:54:00.798Z,99516.28
2022-11-16T19:56:29.573Z,99505.81
2022-11-16T19:58:58.219Z,99493.56
2022-11-16T20:01:29.360Z,99491.75
2022-11-16T20:04:02.234Z,99498.72
2022-11-16T20:06:33.020Z,99481.28
2022-11-16T20:09:08.736Z,99495.28
2022-11-16T20:11:39.494Z,99482.22
2022-11-16T20:14:11.568Z,99484.84
2022-11-16T20:16:42.301Z,99462.06
2022-11-16T20:19:12.335Z,99469.09
2022-11-16T20:21:42.248Z,99460.38
2022-11-16T20:24:14.531Z,99448.13
2022-11-16T20:26:45.458Z,99449.88
2022-11-16T20:29:15.143Z,99437.66
2022-11-16T20:31:45.306Z,99443.72
2022-11-16T20:34:17.470Z,99437.56
2022-11-16T20:36:49.619Z,99438.44
2022-11-16T20:39:20.115Z,99429.78
2022-11-16T20:41:49.022Z,99424.41
2022-11-16T20:44:22.131Z,99415.66
2022-11-16T20:46:52.343Z,99390.47
2022-11-16T20:49:22.111Z,99394.66
2022-11-16T20:51:51.446Z,99396.41
2022-11-16T20:54:19.783Z,99392.91
2022-11-16T20:56:49.596Z,99393.72
2022-11-16T20:59:18.012Z,99385.84
2022-11-16T21:01:48.548Z,99388.41
2022-11-16T21:04:17.346Z,99364.00
2022-11-16T21:06:47.422Z,99376.97
2022-11-16T21:09:22.328Z,99362.19
2022-11-16T21:12:08.465Z,99372.56
2022-11-16T21:14:36.813Z,99360.34
2022-11-16T21:17:05.148Z,99357.81
2022-11-16T21:19:33.394Z,99356.00
2022-11-16T21:22:02.954Z,99346.34
2022-11-16T21:24:32.164Z,99339.63
2022-11-16T21:27:00.412Z,99330.84
2022-11-16T21:29:28.682Z,99327.31
2022-11-16T21:31:56.961Z,99331.69
2022-11-16T21:34:27.782Z,99303.06
2022-11-16T21:36:56.145Z,99308.34
2022-11-16T21:39:25.912Z,99284.84
2022-11-16T21:41:54.726Z,99297.13
2022-11-16T21:44:23.035Z,99295.41
2022-11-16T21:46:51.336Z,99274.59
2022-11-16T21:49:19.646Z,99268.41
2022-11-16T21:51:47.899Z,99251.06
2022-11-16T21:54:16.287Z,99249.34
2022-11-16T21:56:46.170Z,99218.91
2022-11-16T21:59:14.931Z,99211.16
2022-11-16T22:02:01.467Z,99213.72
2022-11-16T22:04:47.174Z,99202.44
2022-11-16T22:07:34.159Z,99206.81
2022-11-16T22:10:03.669Z,99176.31
2022-11-16T22:12:33.533Z,99184.06
2022-11-16T22:15:02.512Z,99159.84
2022-11-16T22:17:31.054Z,99164.00
2022-11-16T22:19:59.793Z,99156.06
2022-11-16T22:22:28.227Z,99149.28
2022-11-16T22:24:56.570Z,99144.00
2022-11-16T22:27:25.099Z,99125.78
2022-11-16T22:29:54.821Z,99148.41
2022-11-16T22:32:23.176Z,99145.66
2022-11-16T22:34:51.635Z,99135.16
2022-11-16T22:37:20.120Z,99117.00
2022-11-16T22:39:48.423Z,99111.75
2022-11-16T22:42:16.829Z,99109.97
2022-11-16T22:44:45.119Z,99110.78
2022-11-16T22:47:14.764Z,99095.75
2022-11-16T22:49:43.065Z,99038.59
2022-11-16T22:52:11.558Z,99089.66
2022-11-16T22:54:40.084Z,99068.72
2022-11-16T22:57:08.687Z,99057.41
2022-11-16T22:59:36.922Z,99020.06
2022-11-16T23:02:05.842Z,99025.16
2022-11-16T23:04:35.587Z,99026.88
2022-11-16T23:07:03.856Z,99019.09
2022-11-16T23:09:32.670Z,99001.81
2022-11-16T23:12:18.390Z,98988.78
2022-11-16T23:15:03.987Z,98979.25
2022-11-16T23:17:32.257Z,98967.00
2022-11-16T23:20:19.191Z,98909.75
2022-11-16T23:23:05.177Z,98933.09
2022-11-16T23:25:51.772Z,98926.97
2022-11-16T23:28:21.241Z,98909.59
2022-11-16T23:30:49.422Z,98918.03
2022-11-16T23:33:17.635Z,98898.88
2022-11-16T23:35:47.174Z,98901.56
2022-11-16T23:38:15.684Z,98897.16
2022-11-16T23:40:43.930Z,98883.09
2022-11-16T23:43:29.434Z,98876.00
2022-11-16T23:45:57.791Z,98868.16
2022-11-16T23:48:26.081Z,98856.09
2022-11-16T23:50:55.741Z,98839.50
2022-11-16T23:53:23.934Z,98829.91
2022-11-16T23:55:52.135Z,98817.63
2022-11-16T23:58:20.323Z,98802.97
